Position Fahrer Laps Zeit Diff Beste Runde Fahrzeug Status Gesamt Bonuspunkte Strafpunkte
1 (2) Klaus Schulze 15 21:05.955 - 1:23.350 Audi TT RS VLN Beendet 60 0 0
2 (1) Stefan Ahlers 15 21:06.144 0:00.189 1:23.072 Audi TT RS VLN Beendet 55 0 0
3 (6) Timo Heyden 15 21:13.186 0:07.231 1:23.753 Audi TT RS VLN Beendet 51 0 0
4 (5) Franz Mayr 15 21:19.058 0:13.103 1:23.605 Audi TT RS VLN Beendet 48 0 0
5 (4) Jonas Hillert 15 21:21.429 0:15.474 1:24.083 Audi TT RS VLN Beendet 46 0 0
6 (3) Georg Ortner 15 21:21.546 0:15.591 1:23.826 Audi TT RS VLN Beendet 44 0 0
7 (8) Reinhard Hiebl 15 21:21.780 0:15.825 1:24.110 Audi TT RS VLN Beendet 42 0 0
8 (13) Sascha Hetzel 15 21:22.413 0:16.458 1:23.758 Audi TT RS VLN Beendet 40 0 0
9 (7) Jan Lehmann 15 21:24.283 0:18.328 1:23.790 Audi TT RS VLN Beendet 38 0 0
10 (9) Marcel Jochheim 15 21:27.455 0:21.500 1:24.216 Audi TT RS VLN Beendet 36 0 0
11 (17) André Gee 15 21:28.918 0:22.963 1:23.877 Audi TT RS VLN Beendet 34 0 0
12 (10) Stefan Findeklee 15 21:29.570 0:23.615 1:24.318 Audi TT RS VLN Beendet 33 0 0
13 (15) Reto Arnold 15 21:49.969 0:44.014 1:25.823 Audi TT RS VLN Beendet 32 0 0
14 (12) kL1ck kL1ck 15 22:02.022 0:56.067 1:21.850 Audi TT RS VLN Beendet 31 0 0
15 (11) Pete Snake 15 22:19.224 1:13.269 1:21.243 Audi TT RS VLN Beendet 30 0 0
16 (14) Nico Drews 3 04:45.154 -12L 1:26.075 Audi TT RS VLN Beendet 0 0 0
17 (16) Manfred Völker 1 - -14L - Audi TT RS VLN DNF 0 0 0

Rennverlauf

Qualifying

Pos Fahrer Zeit Diff
1 Stefan Ahlers 1:23.334 -
2 Klaus Schulze 1:23.340 0:00.006
3 Georg Ortner 1:23.493 0:00.159
4 Jonas Hillert 1:23.542 0:00.208
5 Franz Mayr 1:23.553 0:00.219
6 Timo Heyden 1:23.985 0:00.651
7 Jan Lehmann 1:24.013 0:00.679
8 Reinhard Hiebl 1:24.310 0:00.976
9 Marcel Jochheim 1:24.393 0:01.059
10 Stefan Findeklee 1:24.527 0:01.193
11 Pete Snake 1:24.600 0:01.266
12 kL1ck kL1ck 1:24.633 0:01.299
13 Sascha Hetzel 1:24.862 0:01.528
14 Nico Drews 1:24.913 0:01.579
15 Reto Arnold 1:25.697 0:02.363
16 Manfred Völker 1:25.875 0:02.541
17 André Gee - -

Climber

Diff Startpos Endpos Fahrer
6 17 11 André Gee
5 13 8 Sascha Hetzel
3 6 3 Timo Heyden
2 15 13 Reto Arnold
1 2 1 Klaus Schulze
1 5 4 Franz Mayr
1 8 7 Reinhard Hiebl
-1 9 10 Marcel Jochheim
-1 16 17 Manfred Völker
-1 1 2 Stefan Ahlers
-1 4 5 Jonas Hillert
-2 10 12 Stefan Findeklee
-2 12 14 kL1ck kL1ck
-2 14 16 Nico Drews
-2 7 9 Jan Lehmann
-3 3 6 Georg Ortner
-4 11 15 Pete Snake

Die schnellsten 5 pro Runde

Runde 1

Pos Rennpos Fahrer Zeit Diff
1 2 Klaus Schulze 1:31.150 -
2 3 Stefan Ahlers 1:32.005 0:00.855
3 4 Jonas Hillert 1:33.546 0:02.396
4 5 Timo Heyden 1:34.134 0:02.984
5 6 Marcel Jochheim 1:34.595 0:03.445

Runde 2

Pos Rennpos Fahrer Zeit Diff
1 1 Klaus Schulze 1:23.676 -
2 2 Stefan Ahlers 1:23.688 0:00.012
3 4 Timo Heyden 1:23.932 0:00.256
4 3 Jonas Hillert 1:24.083 0:00.407
5 5 Marcel Jochheim 1:24.216 0:00.540

Runde 3

Pos Rennpos Fahrer Zeit Diff
1 1 Klaus Schulze 1:23.609 -
2 12 Georg Ortner 1:24.191 0:00.582
3 9 Sascha Hetzel 1:24.254 0:00.645
4 3 Timo Heyden 1:24.454 0:00.845
5 8 Jan Lehmann 1:24.609 0:01.000

Runde 4

Pos Rennpos Fahrer Zeit Diff
1 2 Stefan Ahlers 1:23.702 -
2 3 Timo Heyden 1:24.127 0:00.425
3 7 Jan Lehmann 1:24.502 0:00.800
4 1 Klaus Schulze 1:24.526 0:00.824
5 10 Georg Ortner 1:24.589 0:00.887

Runde 5

Pos Rennpos Fahrer Zeit Diff
1 2 Stefan Ahlers 1:23.160 -
2 1 Klaus Schulze 1:23.513 0:00.353
3 10 Georg Ortner 1:24.010 0:00.850
4 12 André Gee 1:24.600 0:01.440
5 5 Franz Mayr 1:24.658 0:01.498

Runde 6

Pos Rennpos Fahrer Zeit Diff
1 2 Stefan Ahlers 1:23.072 -
2 1 Klaus Schulze 1:23.713 0:00.641
3 10 Georg Ortner 1:23.854 0:00.782
4 4 Jonas Hillert 1:24.231 0:01.159
5 12 André Gee 1:24.253 0:01.181

Runde 7

Pos Rennpos Fahrer Zeit Diff
1 3 Timo Heyden 1:23.753 -
2 6 Sascha Hetzel 1:24.127 0:00.374
3 9 Georg Ortner 1:24.224 0:00.471
4 5 Franz Mayr 1:24.283 0:00.530
5 12 André Gee 1:24.442 0:00.689

Runde 8

Pos Rennpos Fahrer Zeit Diff
1 10 Jan Lehmann 1:23.790 -
2 2 Stefan Ahlers 1:23.826 0:00.036
3 1 Klaus Schulze 1:23.840 0:00.050
4 3 Timo Heyden 1:23.944 0:00.154
5 6 Sascha Hetzel 1:24.036 0:00.246

Runde 9

Pos Rennpos Fahrer Zeit Diff
1 2 Stefan Ahlers 1:23.341 -
2 6 Sascha Hetzel 1:23.758 0:00.417
3 1 Klaus Schulze 1:23.786 0:00.445
4 4 Franz Mayr 1:24.056 0:00.715
5 8 Georg Ortner 1:24.119 0:00.778

Runde 10

Pos Rennpos Fahrer Zeit Diff
1 4 Franz Mayr 1:23.605 -
2 8 Georg Ortner 1:23.835 0:00.230
3 6 Sascha Hetzel 1:23.919 0:00.314
4 5 Jonas Hillert 1:24.149 0:00.544
5 10 Jan Lehmann 1:24.236 0:00.631

Runde 11

Pos Rennpos Fahrer Zeit Diff
1 2 Stefan Ahlers 1:23.091 -
2 1 Klaus Schulze 1:23.350 0:00.259
3 4 Franz Mayr 1:23.889 0:00.798
4 3 Timo Heyden 1:23.974 0:00.883
5 7 Reinhard Hiebl 1:24.110 0:01.019

Runde 12

Pos Rennpos Fahrer Zeit Diff
1 14 Pete Snake 1:21.243 -
2 15 kL1ck kL1ck 1:21.850 0:00.607
3 4 Franz Mayr 1:23.664 0:02.421
4 2 Stefan Ahlers 1:23.759 0:02.516
5 1 Klaus Schulze 1:23.869 0:02.626

Runde 13

Pos Rennpos Fahrer Zeit Diff
1 1 Klaus Schulze 1:23.702 -
2 4 Franz Mayr 1:23.974 0:00.272
3 7 Georg Ortner 1:23.981 0:00.279
4 3 Timo Heyden 1:24.058 0:00.356
5 2 Stefan Ahlers 1:24.133 0:00.431

Runde 14

Pos Rennpos Fahrer Zeit Diff
1 14 kL1ck kL1ck 1:23.022 -
2 3 Timo Heyden 1:23.818 0:00.796
3 7 Georg Ortner 1:23.826 0:00.804
4 1 Klaus Schulze 1:23.835 0:00.813
5 8 Sascha Hetzel 1:23.861 0:00.839

Runde 15

Pos Rennpos Fahrer Zeit Diff
1 2 Stefan Ahlers 1:23.821 -
2 3 Timo Heyden 1:23.922 0:00.101
3 11 André Gee 1:24.298 0:00.477
4 9 Jan Lehmann 1:24.303 0:00.482
5 1 Klaus Schulze 1:24.319 0:00.498

SERVER

0 / 61
virtualracing.org #1 GTM
Training 1Lime Rock Park -- Uphill Chicane
0 / 81
virtualracing.org #3 FS
Training 1Lime Rock Park -- Uphill Chicane
0 / 81
virtualracing.org #4 LSM
Training 1Spa-Francorchamps Endurance
0 / 34
virtualracing.org #5 VRF1S
Training 1Barcelona 2021
0 / 34
virtualracing.org #6 VRCS
Training 1Donington Park National Circuit
0 / 81
virtualracing.org #P1 BTCC
Training 1Silverstone Grand Prix
0 / 81
virtualracing.org #P2 CA
WarmUpOulton Park International NC
0 / 34
virtualracing.org #P3 Mini
Training 1Brands Hatch GP
0 / 33
virtualracing.org #P4 IR18
Training 1World Wide Technology Raceway
0 / 104
virtualracing.org VRES L
TesttagNuerburgring -- rF2LN 24h
15 / 104
virtualracing.org VRES T
TesttagNuerburgring -- rF2LN 24h
0/31
virtualracing.org#4 GTC Training Standard
TrainingCircuito de Jerez - GP
0/31
virtualracing.org#5 GTC Training A
TrainingDaytona International Speedway - Road Course
1/16
virtualracing.org#30 ALT Training
Trainingaa_dover_speedway-nh